sensor_id;sensor_type;location;lat;lon;timestamp;temperature;humidity
37678;DHT22;23517;50.390;8.616;2024-02-21T00:01:22;8.20;1.00
37678;DHT22;23517;50.390;8.616;2024-02-21T00:03:49;8.20;1.00
37678;DHT22;23517;50.390;8.616;2024-02-21T00:06:16;8.20;1.00
37678;DHT22;23517;50.390;8.616;2024-02-21T00:08:42;8.10;1.00
37678;DHT22;23517;50.390;8.616;2024-02-21T00:11:09;8.10;1.00
37678;DHT22;23517;50.390;8.616;2024-02-21T00:13:36;8.10;1.00
37678;DHT22;23517;50.390;8.616;2024-02-21T00:16:03;8.00;1.00
37678;DHT22;23517;50.390;8.616;2024-02-21T00:18:30;8.00;1.00
37678;DHT22;23517;50.390;8.616;2024-02-21T00:20:57;7.90;27.20
37678;DHT22;23517;50.390;8.616;2024-02-21T00:23:24;7.90;40.90
37678;DHT22;23517;50.390;8.616;2024-02-21T00:25:50;7.90;90.10
37678;DHT22;23517;50.390;8.616;2024-02-21T00:28:17;7.90;99.90
37678;DHT22;23517;50.390;8.616;2024-02-21T00:30:44;7.90;99.90
37678;DHT22;23517;50.390;8.616;2024-02-21T00:33:11;7.90;99.90
37678;DHT22;23517;50.390;8.616;2024-02-21T00:35:38;7.90;99.90
37678;DHT22;23517;50.390;8.616;2024-02-21T00:38:08;7.90;99.90
37678;DHT22;23517;50.390;8.616;2024-02-21T00:40:35;7.80;99.90
37678;DHT22;23517;50.390;8.616;2024-02-21T00:43:02;7.90;99.90
37678;DHT22;23517;50.390;8.616;2024-02-21T00:45:29;7.90;99.90
37678;DHT22;23517;50.390;8.616;2024-02-21T00:47:56;7.80;99.90
37678;DHT22;23517;50.390;8.616;2024-02-21T00:50:22;7.70;99.90
37678;DHT22;23517;50.390;8.616;2024-02-21T00:52:49;7.70;99.90
37678;DHT22;23517;50.390;8.616;2024-02-21T00:55:16;7.60;99.90
37678;DHT22;23517;50.390;8.616;2024-02-21T00:57:43;7.60;99.90
37678;DHT22;23517;50.390;8.616;2024-02-21T01:00:10;7.70;99.90
37678;DHT22;23517;50.390;8.616;2024-02-21T01:02:37;7.70;99.90
37678;DHT22;23517;50.390;8.616;2024-02-21T01:05:04;7.70;1.40
37678;DHT22;23517;50.390;8.616;2024-02-21T01:07:30;7.70;1.00
37678;DHT22;23517;50.390;8.616;2024-02-21T01:10:00;7.70;1.00
37678;DHT22;23517;50.390;8.616;2024-02-21T01:12:27;7.70;1.00
37678;DHT22;23517;50.390;8.616;2024-02-21T01:14:54;7.70;1.00
37678;DHT22;23517;50.390;8.616;2024-02-21T01:17:20;7.70;1.00
37678;DHT22;23517;50.390;8.616;2024-02-21T01:19:47;7.70;1.00
37678;DHT22;23517;50.390;8.616;2024-02-21T01:22:14;7.70;1.00
37678;DHT22;23517;50.390;8.616;2024-02-21T01:24:42;7.70;99.90
37678;DHT22;23517;50.390;8.616;2024-02-21T01:27:11;7.60;99.90
37678;DHT22;23517;50.390;8.616;2024-02-21T01:29:38;7.60;99.90
37678;DHT22;23517;50.390;8.616;2024-02-21T01:32:05;7.60;99.90
37678;DHT22;23517;50.390;8.616;2024-02-21T01:34:31;7.70;99.90
37678;DHT22;23517;50.390;8.616;2024-02-21T01:36:59;7.70;99.90
37678;DHT22;23517;50.390;8.616;2024-02-21T01:39:26;7.70;99.90
37678;DHT22;23517;50.390;8.616;2024-02-21T01:41:53;7.70;99.90
37678;DHT22;23517;50.390;8.616;2024-02-21T01:44:20;7.70;99.90
37678;DHT22;23517;50.390;8.616;2024-02-21T01:46:46;7.70;99.90
37678;DHT22;23517;50.390;8.616;2024-02-21T01:49:13;7.70;99.90
37678;DHT22;23517;50.390;8.616;2024-02-21T01:51:41;7.80;99.90
37678;DHT22;23517;50.390;8.616;2024-02-21T01:54:10;7.80;99.90
37678;DHT22;23517;50.390;8.616;2024-02-21T01:56:40;7.80;99.90
37678;DHT22;23517;50.390;8.616;2024-02-21T01:59:06;7.90;99.90
37678;DHT22;23517;50.390;8.616;2024-02-21T02:01:33;7.90;99.90
37678;DHT22;23517;50.390;8.616;2024-02-21T02:04:00;7.90;99.90
37678;DHT22;23517;50.390;8.616;2024-02-21T02:06:27;7.90;99.90
37678;DHT22;23517;50.390;8.616;2024-02-21T02:08:54;7.90;99.90
37678;DHT22;23517;50.390;8.616;2024-02-21T02:11:21;7.90;99.90
37678;DHT22;23517;50.390;8.616;2024-02-21T02:13:49;8.00;99.90
37678;DHT22;23517;50.390;8.616;2024-02-21T02:16:15;7.90;99.90
37678;DHT22;23517;50.390;8.616;2024-02-21T02:18:43;7.90;99.90
37678;DHT22;23517;50.390;8.616;2024-02-21T02:21:29;7.80;99.90
37678;DHT22;23517;50.390;8.616;2024-02-21T02:23:57;7.70;99.90
37678;DHT22;23517;50.390;8.616;2024-02-21T02:26:23;7.70;99.90
37678;DHT22;23517;50.390;8.616;2024-02-21T02:28:50;7.70;99.90
37678;DHT22;23517;50.390;8.616;2024-02-21T02:31:17;7.70;99.90
37678;DHT22;23517;50.390;8.616;2024-02-21T02:33:44;7.70;99.90
37678;DHT22;23517;50.390;8.616;2024-02-21T02:36:11;7.60;99.90
37678;DHT22;23517;50.390;8.616;2024-02-21T02:38:37;7.70;99.90
37678;DHT22;23517;50.390;8.616;2024-02-21T02:41:04;7.60;99.90
37678;DHT22;23517;50.390;8.616;2024-02-21T02:43:31;7.60;99.90
37678;DHT22;23517;50.390;8.616;2024-02-21T02:45:58;7.70;99.90
37678;DHT22;23517;50.390;8.616;2024-02-21T02:48:25;7.70;99.90
37678;DHT22;23517;50.390;8.616;2024-02-21T02:50:51;7.80;99.90
37678;DHT22;23517;50.390;8.616;2024-02-21T02:53:18;7.80;99.90
37678;DHT22;23517;50.390;8.616;2024-02-21T02:55:45;7.80;99.90
37678;DHT22;23517;50.390;8.616;2024-02-21T02:58:12;7.80;99.90
37678;DHT22;23517;50.390;8.616;2024-02-21T03:00:38;7.80;99.90
37678;DHT22;23517;50.390;8.616;2024-02-21T03:03:06;7.80;99.90
37678;DHT22;23517;50.390;8.616;2024-02-21T03:05:34;7.80;99.90
37678;DHT22;23517;50.390;8.616;2024-02-21T03:08:01;7.80;99.90
37678;DHT22;23517;50.390;8.616;2024-02-21T03:10:28;7.80;99.90
37678;DHT22;23517;50.390;8.616;2024-02-21T03:12:55;7.90;99.90
37678;DHT22;23517;50.390;8.616;2024-02-21T03:15:23;7.90;99.90
37678;DHT22;23517;50.390;8.616;2024-02-21T03:17:50;7.90;99.90
37678;DHT22;23517;50.390;8.616;2024-02-21T03:20:17;7.90;99.90
37678;DHT22;23517;50.390;8.616;2024-02-21T03:22:46;7.90;99.90
37678;DHT22;23517;50.390;8.616;2024-02-21T03:25:15;7.90;99.90
37678;DHT22;23517;50.390;8.616;2024-02-21T03:27:42;7.90;99.90
37678;DHT22;23517;50.390;8.616;2024-02-21T03:30:09;7.90;99.90
37678;DHT22;23517;50.390;8.616;2024-02-21T03:32:36;7.80;99.90
37678;DHT22;23517;50.390;8.616;2024-02-21T03:35:05;7.80;99.90
37678;DHT22;23517;50.390;8.616;2024-02-21T03:37:32;7.80;99.90
37678;DHT22;23517;50.390;8.616;2024-02-21T03:39:59;7.80;99.90
37678;DHT22;23517;50.390;8.616;2024-02-21T03:42:25;7.80;99.90
37678;DHT22;23517;50.390;8.616;2024-02-21T03:44:52;7.80;99.90
37678;DHT22;23517;50.390;8.616;2024-02-21T03:47:19;7.80;99.90
37678;DHT22;23517;50.390;8.616;2024-02-21T03:49:46;7.80;99.90
37678;DHT22;23517;50.390;8.616;2024-02-21T03:52:12;7.80;99.90
37678;DHT22;23517;50.390;8.616;2024-02-21T03:54:39;7.70;99.90
37678;DHT22;23517;50.390;8.616;2024-02-21T03:57:06;7.80;99.90
37678;DHT22;23517;50.390;8.616;2024-02-21T03:59:33;7.80;99.90
37678;DHT22;23517;50.390;8.616;2024-02-21T04:01:59;7.80;99.90
37678;DHT22;23517;50.390;8.616;2024-02-21T04:04:28;7.80;99.90
37678;DHT22;23517;50.390;8.616;2024-02-21T04:06:55;7.80;99.90
37678;DHT22;23517;50.390;8.616;2024-02-21T04:09:21;7.80;99.90
37678;DHT22;23517;50.390;8.616;2024-02-21T04:11:51;7.80;99.90
37678;DHT22;23517;50.390;8.616;2024-02-21T04:14:18;7.80;99.90
37678;DHT22;23517;50.390;8.616;2024-02-21T04:16:45;7.80;99.90
37678;DHT22;23517;50.390;8.616;2024-02-21T04:19:11;7.80;99.90
37678;DHT22;23517;50.390;8.616;2024-02-21T04:21:40;7.80;99.90
37678;DHT22;23517;50.390;8.616;2024-02-21T04:24:07;7.80;99.90
37678;DHT22;23517;50.390;8.616;2024-02-21T04:26:34;7.80;99.90
37678;DHT22;23517;50.390;8.616;2024-02-21T04:29:01;7.80;99.90
37678;DHT22;23517;50.390;8.616;2024-02-21T04:31:28;7.70;99.90
37678;DHT22;23517;50.390;8.616;2024-02-21T04:33:56;7.80;99.90
37678;DHT22;23517;50.390;8.616;2024-02-21T04:36:25;7.80;99.90
37678;DHT22;23517;50.390;8.616;2024-02-21T04:38:52;7.80;99.90
37678;DHT22;23517;50.390;8.616;2024-02-21T04:41:18;7.80;99.90
37678;DHT22;23517;50.390;8.616;2024-02-21T04:43:47;7.80;99.90
37678;DHT22;23517;50.390;8.616;2024-02-21T04:46:15;7.80;99.90
37678;DHT22;23517;50.390;8.616;2024-02-21T04:48:42;7.80;99.90
37678;DHT22;23517;50.390;8.616;2024-02-21T04:51:11;7.80;99.90
37678;DHT22;23517;50.390;8.616;2024-02-21T04:53:39;7.80;99.90
37678;DHT22;23517;50.390;8.616;2024-02-21T04:56:06;7.80;99.90
37678;DHT22;23517;50.390;8.616;2024-02-21T04:58:33;7.80;99.90
37678;DHT22;23517;50.390;8.616;2024-02-21T05:00:59;7.80;99.90
37678;DHT22;23517;50.390;8.616;2024-02-21T05:03:28;7.80;99.90
37678;DHT22;23517;50.390;8.616;2024-02-21T05:05:55;7.80;99.90
37678;DHT22;23517;50.390;8.616;2024-02-21T05:08:23;7.80;99.90
37678;DHT22;23517;50.390;8.616;2024-02-21T05:10:50;7.80;99.90
37678;DHT22;23517;50.390;8.616;2024-02-21T05:13:17;7.80;99.90
37678;DHT22;23517;50.390;8.616;2024-02-21T05:15:43;7.90;99.90
37678;DHT22;23517;50.390;8.616;2024-02-21T05:18:10;7.80;99.90
37678;DHT22;23517;50.390;8.616;2024-02-21T05:20:37;7.80;99.90
37678;DHT22;23517;50.390;8.616;2024-02-21T05:23:04;7.80;99.90
37678;DHT22;23517;50.390;8.616;2024-02-21T05:25:31;7.80;99.90
37678;DHT22;23517;50.390;8.616;2024-02-21T05:27:57;7.80;99.90
37678;DHT22;23517;50.390;8.616;2024-02-21T05:30:28;7.90;99.90
37678;DHT22;23517;50.390;8.616;2024-02-21T05:32:56;7.90;99.90
37678;DHT22;23517;50.390;8.616;2024-02-21T05:35:27;7.90;99.90
37678;DHT22;23517;50.390;8.616;2024-02-21T05:37:55;7.90;99.90
37678;DHT22;23517;50.390;8.616;2024-02-21T05:40:22;7.90;99.90
37678;DHT22;23517;50.390;8.616;2024-02-21T05:42:48;7.80;99.90
37678;DHT22;23517;50.390;8.616;2024-02-21T05:45:18;7.80;99.90
37678;DHT22;23517;50.390;8.616;2024-02-21T05:47:44;7.80;99.90
37678;DHT22;23517;50.390;8.616;2024-02-21T05:50:13;7.70;99.90
37678;DHT22;23517;50.390;8.616;2024-02-21T05:52:40;7.60;99.90
37678;DHT22;23517;50.390;8.616;2024-02-21T05:55:07;7.60;99.90
37678;DHT22;23517;50.390;8.616;2024-02-21T05:57:35;7.50;99.90
37678;DHT22;23517;50.390;8.616;2024-02-21T06:00:06;7.30;99.90
37678;DHT22;23517;50.390;8.616;2024-02-21T06:02:33;7.20;99.90
37678;DHT22;23517;50.390;8.616;2024-02-21T06:04:59;7.20;1.00
37678;DHT22;23517;50.390;8.616;2024-02-21T06:07:27;7.10;1.00
37678;DHT22;23517;50.390;8.616;2024-02-21T06:09:53;7.10;1.00
37678;DHT22;23517;50.390;8.616;2024-02-21T06:12:20;7.00;1.00
37678;DHT22;23517;50.390;8.616;2024-02-21T06:14:47;7.00;1.00
37678;DHT22;23517;50.390;8.616;2024-02-21T06:17:14;6.90;1.00
37678;DHT22;23517;50.390;8.616;2024-02-21T06:19:42;6.90;1.00
37678;DHT22;23517;50.390;8.616;2024-02-21T06:22:10;6.90;6.60
37678;DHT22;23517;50.390;8.616;2024-02-21T06:24:38;6.80;10.60
37678;DHT22;23517;50.390;8.616;2024-02-21T06:27:05;6.90;62.80
37678;DHT22;23517;50.390;8.616;2024-02-21T06:29:37;6.90;77.40
37678;DHT22;23517;50.390;8.616;2024-02-21T06:32:04;6.80;99.90
37678;DHT22;23517;50.390;8.616;2024-02-21T06:34:31;6.80;99.90
37678;DHT22;23517;50.390;8.616;2024-02-21T06:37:00;6.80;99.90
37678;DHT22;23517;50.390;8.616;2024-02-21T06:39:27;6.70;99.90
37678;DHT22;23517;50.390;8.616;2024-02-21T06:41:55;6.70;99.90
37678;DHT22;23517;50.390;8.616;2024-02-21T06:44:27;6.70;99.90
37678;DHT22;23517;50.390;8.616;2024-02-21T06:46:54;6.70;99.90
37678;DHT22;23517;50.390;8.616;2024-02-21T06:49:21;6.80;99.90
37678;DHT22;23517;50.390;8.616;2024-02-21T06:51:48;6.80;99.90
37678;DHT22;23517;50.390;8.616;2024-02-21T06:54:15;6.80;99.90
37678;DHT22;23517;50.390;8.616;2024-02-21T06:56:42;6.80;99.90
37678;DHT22;23517;50.390;8.616;2024-02-21T06:59:09;6.90;75.10
37678;DHT22;23517;50.390;8.616;2024-02-21T07:01:36;6.80;1.00
37678;DHT22;23517;50.390;8.616;2024-02-21T07:04:03;6.90;1.00
37678;DHT22;23517;50.390;8.616;2024-02-21T07:06:29;6.90;1.00
37678;DHT22;23517;50.390;8.616;2024-02-21T07:09:00;6.90;1.00
37678;DHT22;23517;50.390;8.616;2024-02-21T07:11:29;7.10;1.00
37678;DHT22;23517;50.390;8.616;2024-02-21T07:13:56;7.20;1.00
37678;DHT22;23517;50.390;8.616;2024-02-21T07:16:23;7.20;99.90
37678;DHT22;23517;50.390;8.616;2024-02-21T07:18:50;7.20;99.90
37678;DHT22;23517;50.390;8.616;2024-02-21T07:21:17;7.20;99.90
37678;DHT22;23517;50.390;8.616;2024-02-21T07:23:43;7.30;99.90
37678;DHT22;23517;50.390;8.616;2024-02-21T07:26:11;7.40;99.90
37678;DHT22;23517;50.390;8.616;2024-02-21T07:28:38;7.50;99.90
37678;DHT22;23517;50.390;8.616;2024-02-21T07:31:04;7.60;99.90
37678;DHT22;23517;50.390;8.616;2024-02-21T07:33:31;7.80;99.90
37678;DHT22;23517;50.390;8.616;2024-02-21T07:35:59;8.00;99.90
37678;DHT22;23517;50.390;8.616;2024-02-21T07:38:25;8.10;99.90
37678;DHT22;23517;50.390;8.616;2024-02-21T07:40:52;8.30;99.90
37678;DHT22;23517;50.390;8.616;2024-02-21T07:43:19;8.40;99.90
37678;DHT22;23517;50.390;8.616;2024-02-21T07:45:45;8.50;31.70
37678;DHT22;23517;50.390;8.616;2024-02-21T07:48:12;8.50;1.00
37678;DHT22;23517;50.390;8.616;2024-02-21T07:50:39;8.50;1.00
37678;DHT22;23517;50.390;8.616;2024-02-21T07:53:06;8.50;1.00
37678;DHT22;23517;50.390;8.616;2024-02-21T07:55:34;8.60;1.00
37678;DHT22;23517;50.390;8.616;2024-02-21T07:58:01;8.60;1.00
37678;DHT22;23517;50.390;8.616;2024-02-21T08:00:28;8.70;1.00
37678;DHT22;23517;50.390;8.616;2024-02-21T08:02:56;8.70;1.00
37678;DHT22;23517;50.390;8.616;2024-02-21T08:05:23;8.80;1.00
37678;DHT22;23517;50.390;8.616;2024-02-21T08:07:50;8.80;1.00
37678;DHT22;23517;50.390;8.616;2024-02-21T08:10:18;8.90;1.00
37678;DHT22;23517;50.390;8.616;2024-02-21T08:12:45;9.00;1.00
37678;DHT22;23517;50.390;8.616;2024-02-21T08:15:11;9.00;1.00
37678;DHT22;23517;50.390;8.616;2024-02-21T08:17:41;9.00;1.00
37678;DHT22;23517;50.390;8.616;2024-02-21T08:20:08;9.10;1.00
37678;DHT22;23517;50.390;8.616;2024-02-21T08:22:37;9.20;1.00
37678;DHT22;23517;50.390;8.616;2024-02-21T08:25:05;9.20;1.00
37678;DHT22;23517;50.390;8.616;2024-02-21T08:27:32;9.30;1.00
37678;DHT22;23517;50.390;8.616;2024-02-21T08:29:58;9.30;1.00
37678;DHT22;23517;50.390;8.616;2024-02-21T08:32:25;9.30;1.00
37678;DHT22;23517;50.390;8.616;2024-02-21T08:34:52;9.50;1.00
37678;DHT22;23517;50.390;8.616;2024-02-21T08:37:20;9.60;1.00
37678;DHT22;23517;50.390;8.616;2024-02-21T08:39:48;9.70;1.00
37678;DHT22;23517;50.390;8.616;2024-02-21T08:42:14;9.80;1.00
37678;DHT22;23517;50.390;8.616;2024-02-21T08:44:41;9.80;1.00
37678;DHT22;23517;50.390;8.616;2024-02-21T08:47:09;10.00;1.00
37678;DHT22;23517;50.390;8.616;2024-02-21T08:49:37;10.10;99.90
37678;DHT22;23517;50.390;8.616;2024-02-21T08:52:04;10.20;99.90
37678;DHT22;23517;50.390;8.616;2024-02-21T08:54:32;10.30;99.90
37678;DHT22;23517;50.390;8.616;2024-02-21T08:57:00;10.50;99.90
37678;DHT22;23517;50.390;8.616;2024-02-21T08:59:27;10.60;99.90
37678;DHT22;23517;50.390;8.616;2024-02-21T09:01:54;10.60;99.90
37678;DHT22;23517;50.390;8.616;2024-02-21T09:04:21;10.50;99.90
37678;DHT22;23517;50.390;8.616;2024-02-21T09:06:48;10.50;99.90
37678;DHT22;23517;50.390;8.616;2024-02-21T09:09:14;10.50;99.90
37678;DHT22;23517;50.390;8.616;2024-02-21T09:11:41;10.50;99.90
37678;DHT22;23517;50.390;8.616;2024-02-21T09:14:08;10.80;99.90
37678;DHT22;23517;50.390;8.616;2024-02-21T09:16:35;11.10;99.90
37678;DHT22;23517;50.390;8.616;2024-02-21T09:19:02;11.10;99.90
37678;DHT22;23517;50.390;8.616;2024-02-21T09:21:29;11.50;99.90
37678;DHT22;23517;50.390;8.616;2024-02-21T09:23:55;11.80;99.90
37678;DHT22;23517;50.390;8.616;2024-02-21T09:26:25;11.90;99.90
37678;DHT22;23517;50.390;8.616;2024-02-21T09:28:54;11.90;99.90
37678;DHT22;23517;50.390;8.616;2024-02-21T09:31:21;11.70;99.90
37678;DHT22;23517;50.390;8.616;2024-02-21T09:33:47;11.60;99.90
37678;DHT22;23517;50.390;8.616;2024-02-21T09:36:14;11.50;99.90
37678;DHT22;23517;50.390;8.616;2024-02-21T09:38:41;11.30;99.90
37678;DHT22;23517;50.390;8.616;2024-02-21T09:41:18;11.30;99.90
37678;DHT22;23517;50.390;8.616;2024-02-21T09:43:56;11.50;99.90
37678;DHT22;23517;50.390;8.616;2024-02-21T09:46:39;11.70;99.90
37678;DHT22;23517;50.390;8.616;2024-02-21T09:49:34;11.90;99.90
37678;DHT22;23517;50.390;8.616;2024-02-21T09:52:04;12.00;99.90
37678;DHT22;23517;50.390;8.616;2024-02-21T09:54:35;11.90;99.90
37678;DHT22;23517;50.390;8.616;2024-02-21T09:57:05;12.40;99.90
37678;DHT22;23517;50.390;8.616;2024-02-21T09:59:33;12.80;99.90
37678;DHT22;23517;50.390;8.616;2024-02-21T10:02:01;13.10;99.90
37678;DHT22;23517;50.390;8.616;2024-02-21T10:04:29;13.60;89.90
37678;DHT22;23517;50.390;8.616;2024-02-21T10:06:56;14.00;64.80
37678;DHT22;23517;50.390;8.616;2024-02-21T10:09:27;14.20;40.50
37678;DHT22;23517;50.390;8.616;2024-02-21T10:12:11;14.10;16.20
37678;DHT22;23517;50.390;8.616;2024-02-21T10:14:40;13.80;13.50
37678;DHT22;23517;50.390;8.616;2024-02-21T10:17:14;13.70;10.80
37678;DHT22;23517;50.390;8.616;2024-02-21T10:19:42;13.70;5.70
37678;DHT22;23517;50.390;8.616;2024-02-21T10:22:09;13.60;1.00
37678;DHT22;23517;50.390;8.616;2024-02-21T10:24:37;13.30;1.00
37678;DHT22;23517;50.390;8.616;2024-02-21T10:27:10;13.10;1.00
37678;DHT22;23517;50.390;8.616;2024-02-21T10:29:39;13.10;1.00
37678;DHT22;23517;50.390;8.616;2024-02-21T10:32:08;13.00;1.00
37678;DHT22;23517;50.390;8.616;2024-02-21T10:34:37;12.90;1.00
37678;DHT22;23517;50.390;8.616;2024-02-21T10:37:07;12.80;1.00
37678;DHT22;23517;50.390;8.616;2024-02-21T10:39:39;12.80;1.00
37678;DHT22;23517;50.390;8.616;2024-02-21T10:42:06;13.00;1.00
37678;DHT22;23517;50.390;8.616;2024-02-21T10:44:37;13.00;1.00
37678;DHT22;23517;50.390;8.616;2024-02-21T10:47:10;13.10;1.00
37678;DHT22;23517;50.390;8.616;2024-02-21T10:49:40;13.20;1.00
37678;DHT22;23517;50.390;8.616;2024-02-21T10:52:14;13.20;1.00
37678;DHT22;23517;50.390;8.616;2024-02-21T10:54:47;13.20;1.00
37678;DHT22;23517;50.390;8.616;2024-02-21T10:57:17;13.20;1.00
37678;DHT22;23517;50.390;8.616;2024-02-21T10:59:48;13.30;1.00
37678;DHT22;23517;50.390;8.616;2024-02-21T11:02:15;13.30;1.00
37678;DHT22;23517;50.390;8.616;2024-02-21T11:04:44;13.50;1.00
37678;DHT22;23517;50.390;8.616;2024-02-21T11:07:12;13.70;1.00
37678;DHT22;23517;50.390;8.616;2024-02-21T11:09:39;13.80;1.00
37678;DHT22;23517;50.390;8.616;2024-02-21T11:12:06;13.60;1.00
37678;DHT22;23517;50.390;8.616;2024-02-21T11:14:38;13.40;1.00
37678;DHT22;23517;50.390;8.616;2024-02-21T11:17:16;13.30;1.00
37678;DHT22;23517;50.390;8.616;2024-02-21T11:19:44;13.30;1.00
37678;DHT22;23517;50.390;8.616;2024-02-21T11:22:19;13.40;1.00
37678;DHT22;23517;50.390;8.616;2024-02-21T11:24:49;13.30;1.00
37678;DHT22;23517;50.390;8.616;2024-02-21T11:27:19;13.40;1.00
37678;DHT22;23517;50.390;8.616;2024-02-21T11:29:58;13.30;1.00
37678;DHT22;23517;50.390;8.616;2024-02-21T11:32:26;13.10;1.00
37678;DHT22;23517;50.390;8.616;2024-02-21T11:35:02;13.10;1.00
37678;DHT22;23517;50.390;8.616;2024-02-21T11:37:35;13.00;1.00
37678;DHT22;23517;50.390;8.616;2024-02-21T11:40:06;13.10;1.00
37678;DHT22;23517;50.390;8.616;2024-02-21T11:42:36;13.10;1.00
37678;DHT22;23517;50.390;8.616;2024-02-21T11:45:03;13.10;1.00
37678;DHT22;23517;50.390;8.616;2024-02-21T11:47:30;13.20;1.00
37678;DHT22;23517;50.390;8.616;2024-02-21T11:49:57;13.30;1.00
37678;DHT22;23517;50.390;8.616;2024-02-21T11:52:25;13.50;1.00
37678;DHT22;23517;50.390;8.616;2024-02-21T11:54:53;13.70;1.00
37678;DHT22;23517;50.390;8.616;2024-02-21T11:57:22;13.80;1.00
37678;DHT22;23517;50.390;8.616;2024-02-21T11:59:48;13.80;1.00
37678;DHT22;23517;50.390;8.616;2024-02-21T12:02:23;13.80;1.00
37678;DHT22;23517;50.390;8.616;2024-02-21T12:04:50;13.60;1.00
37678;DHT22;23517;50.390;8.616;2024-02-21T12:07:17;13.60;1.00
37678;DHT22;23517;50.390;8.616;2024-02-21T12:09:44;13.50;1.00
37678;DHT22;23517;50.390;8.616;2024-02-21T12:12:11;13.50;1.00
37678;DHT22;23517;50.390;8.616;2024-02-21T12:14:37;13.30;1.00
37678;DHT22;23517;50.390;8.616;2024-02-21T12:17:04;13.30;1.00
37678;DHT22;23517;50.390;8.616;2024-02-21T12:19:32;13.20;1.00
37678;DHT22;23517;50.390;8.616;2024-02-21T12:22:00;13.20;1.00
37678;DHT22;23517;50.390;8.616;2024-02-21T12:24:28;13.20;1.00
37678;DHT22;23517;50.390;8.616;2024-02-21T12:26:56;13.20;1.00
37678;DHT22;23517;50.390;8.616;2024-02-21T12:29:24;13.20;1.00
37678;DHT22;23517;50.390;8.616;2024-02-21T12:31:51;13.20;1.00
37678;DHT22;23517;50.390;8.616;2024-02-21T12:34:20;13.20;1.00
37678;DHT22;23517;50.390;8.616;2024-02-21T12:37:04;13.20;1.00
37678;DHT22;23517;50.390;8.616;2024-02-21T12:39:31;13.40;1.00
37678;DHT22;23517;50.390;8.616;2024-02-21T12:41:59;13.40;1.00
37678;DHT22;23517;50.390;8.616;2024-02-21T12:44:27;13.40;1.00
37678;DHT22;23517;50.390;8.616;2024-02-21T12:46:54;13.40;1.00
37678;DHT22;23517;50.390;8.616;2024-02-21T12:49:22;13.30;1.00
37678;DHT22;23517;50.390;8.616;2024-02-21T12:51:49;13.30;1.00
37678;DHT22;23517;50.390;8.616;2024-02-21T12:54:15;13.20;1.00
37678;DHT22;23517;50.390;8.616;2024-02-21T12:56:42;13.20;1.00
37678;DHT22;23517;50.390;8.616;2024-02-21T12:59:09;13.30;1.00
37678;DHT22;23517;50.390;8.616;2024-02-21T13:01:36;13.30;1.00
37678;DHT22;23517;50.390;8.616;2024-02-21T13:04:04;13.20;1.00
37678;DHT22;23517;50.390;8.616;2024-02-21T13:06:31;13.20;1.00
37678;DHT22;23517;50.390;8.616;2024-02-21T13:08:58;13.10;1.00
37678;DHT22;23517;50.390;8.616;2024-02-21T13:11:26;13.10;1.00
37678;DHT22;23517;50.390;8.616;2024-02-21T13:13:57;13.00;1.00
37678;DHT22;23517;50.390;8.616;2024-02-21T13:16:24;13.00;1.00
37678;DHT22;23517;50.390;8.616;2024-02-21T13:18:52;12.90;1.00
37678;DHT22;23517;50.390;8.616;2024-02-21T13:21:19;12.80;1.00
37678;DHT22;23517;50.390;8.616;2024-02-21T13:23:46;12.80;1.00
37678;DHT22;23517;50.390;8.616;2024-02-21T13:26:13;12.60;1.00
37678;DHT22;23517;50.390;8.616;2024-02-21T13:28:40;12.50;1.00
37678;DHT22;23517;50.390;8.616;2024-02-21T13:31:07;12.40;1.00
37678;DHT22;23517;50.390;8.616;2024-02-21T13:33:34;12.30;1.00
37678;DHT22;23517;50.390;8.616;2024-02-21T13:36:00;12.40;1.00
37678;DHT22;23517;50.390;8.616;2024-02-21T13:38:28;12.40;1.00
37678;DHT22;23517;50.390;8.616;2024-02-21T13:40:55;12.40;1.00
37678;DHT22;23517;50.390;8.616;2024-02-21T13:43:22;12.40;1.00
37678;DHT22;23517;50.390;8.616;2024-02-21T13:45:57;12.40;1.00
37678;DHT22;23517;50.390;8.616;2024-02-21T13:48:29;12.40;1.00
37678;DHT22;23517;50.390;8.616;2024-02-21T13:50:57;12.30;1.00
37678;DHT22;23517;50.390;8.616;2024-02-21T13:53:23;12.30;1.00
37678;DHT22;23517;50.390;8.616;2024-02-21T13:55:51;12.30;1.00
37678;DHT22;23517;50.390;8.616;2024-02-21T13:58:19;12.20;1.00
37678;DHT22;23517;50.390;8.616;2024-02-21T14:00:46;12.30;1.00
37678;DHT22;23517;50.390;8.616;2024-02-21T14:03:13;12.30;1.00
37678;DHT22;23517;50.390;8.616;2024-02-21T14:05:41;12.20;1.00
37678;DHT22;23517;50.390;8.616;2024-02-21T14:08:09;12.20;1.00
37678;DHT22;23517;50.390;8.616;2024-02-21T14:10:36;12.20;1.00
37678;DHT22;23517;50.390;8.616;2024-02-21T14:13:04;12.20;1.00
37678;DHT22;23517;50.390;8.616;2024-02-21T14:15:30;12.20;1.00
37678;DHT22;23517;50.390;8.616;2024-02-21T14:17:57;12.00;1.00
37678;DHT22;23517;50.390;8.616;2024-02-21T14:20:24;12.00;1.00
37678;DHT22;23517;50.390;8.616;2024-02-21T14:22:51;11.90;1.00
37678;DHT22;23517;50.390;8.616;2024-02-21T14:25:18;11.80;1.00
37678;DHT22;23517;50.390;8.616;2024-02-21T14:27:45;11.70;1.00
37678;DHT22;23517;50.390;8.616;2024-02-21T14:30:12;11.60;1.00
37678;DHT22;23517;50.390;8.616;2024-02-21T14:32:43;11.60;1.00
37678;DHT22;23517;50.390;8.616;2024-02-21T14:35:10;11.50;1.00
37678;DHT22;23517;50.390;8.616;2024-02-21T14:37:37;11.50;1.00
37678;DHT22;23517;50.390;8.616;2024-02-21T14:40:05;11.40;1.00
37678;DHT22;23517;50.390;8.616;2024-02-21T14:42:32;11.30;1.00
37678;DHT22;23517;50.390;8.616;2024-02-21T14:45:00;11.20;1.00
37678;DHT22;23517;50.390;8.616;2024-02-21T14:47:32;11.20;1.00
37678;DHT22;23517;50.390;8.616;2024-02-21T14:49:59;11.10;1.00
37678;DHT22;23517;50.390;8.616;2024-02-21T14:52:28;11.10;1.00
37678;DHT22;23517;50.390;8.616;2024-02-21T14:54:56;11.00;1.00
37678;DHT22;23517;50.390;8.616;2024-02-21T14:57:23;11.00;1.00
37678;DHT22;23517;50.390;8.616;2024-02-21T14:59:51;11.10;1.00
37678;DHT22;23517;50.390;8.616;2024-02-21T15:02:23;11.10;1.00
37678;DHT22;23517;50.390;8.616;2024-02-21T15:04:50;11.00;1.00
37678;DHT22;23517;50.390;8.616;2024-02-21T15:07:19;10.90;1.00
37678;DHT22;23517;50.390;8.616;2024-02-21T15:09:50;10.90;1.00
37678;DHT22;23517;50.390;8.616;2024-02-21T15:12:18;10.90;1.00
37678;DHT22;23517;50.390;8.616;2024-02-21T15:14:45;10.90;1.00
37678;DHT22;23517;50.390;8.616;2024-02-21T15:17:11;10.90;1.00
37678;DHT22;23517;50.390;8.616;2024-02-21T15:19:39;10.80;1.00
37678;DHT22;23517;50.390;8.616;2024-02-21T15:22:10;10.70;2.20
37678;DHT22;23517;50.390;8.616;2024-02-21T15:24:41;10.70;3.70
37678;DHT22;23517;50.390;8.616;2024-02-21T15:27:08;10.70;7.90
37678;DHT22;23517;50.390;8.616;2024-02-21T15:29:35;10.70;11.70
37678;DHT22;23517;50.390;8.616;2024-02-21T15:32:03;10.60;9.40
37678;DHT22;23517;50.390;8.616;2024-02-21T15:34:30;10.60;15.90
37678;DHT22;23517;50.390;8.616;2024-02-21T15:36:58;10.50;18.00
37678;DHT22;23517;50.390;8.616;2024-02-21T15:39:25;10.40;18.40
37678;DHT22;23517;50.390;8.616;2024-02-21T15:41:55;10.40;26.00
37678;DHT22;23517;50.390;8.616;2024-02-21T15:44:25;10.30;29.60
37678;DHT22;23517;50.390;8.616;2024-02-21T15:46:52;10.30;27.60
37678;DHT22;23517;50.390;8.616;2024-02-21T15:49:20;10.30;26.00
37678;DHT22;23517;50.390;8.616;2024-02-21T15:51:47;10.30;22.30